Stephens City, VA

3:02 AM EST on November 24, 2014 (GMT -0500)
Fredericktowne | Change Station
CLOSE
Current Station
Personal Weather Station
Location: Stephens City, VA
Elevation: 732 ft
Nearby Weather Stations

Elev 732 ft 39.08 °N, 78.19 °W | Updated 13 seconds ago

Overcast
Overcast
51.5 °F
Feels Like 51.5 °F
N
2.2
Wind Variable Wind from WSW
Gusts 2.2 mph

Today
High -- | Low -- °F
--% Chance of Precip.
Yesterday
High -- | Low -- °F
Precip. -- in
7:05 AM 4:53 PM
Waxing Crescent, 4% visible
Pressure 29.60 in
Visibility 10.0 miles
Clouds Scattered Clouds 3500 ft
Scattered Clouds 4400 ft
Mostly Cloudy 7500 ft
Dew Point 46 °F
Humidity 80%
Rainfall 0.00 in
Snow Depth Not available.
UV 0 out of 12
Pollen .10 out of 12
Air Quality Not available.
Flu Activity Not available.
METAR KOKV 240755Z AUTO 13005KT 10SM SCT035 SCT044 BKN075 12/10 A2960 RMK AO2

More Conditions Fewer Conditions

Pressure 29.60 in
Visibility 10.0 miles
Clouds Scattered Clouds 3500 ft
Scattered Clouds 4400 ft
Mostly Cloudy 7500 ft
Dew Point 46 °F
Humidity 80%
Rainfall 0.00 in
Snow Depth Not available.
UV 0 out of 12
Pollen .10 out of 12
Air Quality Not available.
Flu Activity Not available.
METAR KOKV 240755Z AUTO 13005KT 10SM SCT035 SCT044 BKN075 12/10 A2960 RMK AO2

More Conditions Fewer Conditions

10-Day Weather Forecast

Almanac

Astronomy

Nov. 24, 2014 Rise Set
Actual Time
Civil Twilight
Nautical Twilight
Astronomical Twilight
Moon
Length of Visible Light
Length of Day
Tomorrow will be .
, % of the Moon is Illuminated

Today's Extremes

State Highs State Lows

Community

WunderPhotos

Upload Photos

1,773,295 photos uploaded!

WunderBlogs® & News

Nearby

Air Quality

  Air Quality AQ Index Pollutant
Not available.

Snow Depth

Station Depth Elevation

Earthquake Activity

City Distance Mag. Time & Date
Minimum magnitude displayed is 2.5.

Coastal Water Temperatures

Place Temperature

Nearby Weather Stations